sensor_id;sensor_type;location;lat;lon;timestamp;P1;durP1;ratioP1;P2;durP2;ratioP2
17494;SDS011;8864;51.970;4.614;2023-04-12T00:00:14;2.92;;;0.80;;
17494;SDS011;8864;51.970;4.614;2023-04-12T00:02:42;1.45;;;0.80;;
17494;SDS011;8864;51.970;4.614;2023-04-12T00:05:09;2.72;;;0.93;;
17494;SDS011;8864;51.970;4.614;2023-04-12T00:07:38;2.67;;;0.82;;
17494;SDS011;8864;51.970;4.614;2023-04-12T00:10:07;1.40;;;0.70;;
17494;SDS011;8864;51.970;4.614;2023-04-12T00:12:36;3.22;;;0.80;;
17494;SDS011;8864;51.970;4.614;2023-04-12T00:15:05;2.22;;;0.95;;
17494;SDS011;8864;51.970;4.614;2023-04-12T00:17:32;1.90;;;0.70;;
17494;SDS011;8864;51.970;4.614;2023-04-12T00:20:00;1.13;;;0.65;;
17494;SDS011;8864;51.970;4.614;2023-04-12T00:22:30;2.45;;;0.80;;
17494;SDS011;8864;51.970;4.614;2023-04-12T00:24:56;1.42;;;0.60;;
17494;SDS011;8864;51.970;4.614;2023-04-12T00:27:23;1.23;;;0.80;;
17494;SDS011;8864;51.970;4.614;2023-04-12T00:29:52;1.75;;;0.70;;
17494;SDS011;8864;51.970;4.614;2023-04-12T00:32:18;2.97;;;0.75;;
17494;SDS011;8864;51.970;4.614;2023-04-12T00:34:45;1.10;;;0.68;;
17494;SDS011;8864;51.970;4.614;2023-04-12T00:37:12;2.28;;;0.60;;
17494;SDS011;8864;51.970;4.614;2023-04-12T00:39:39;2.50;;;0.90;;
17494;SDS011;8864;51.970;4.614;2023-04-12T00:42:06;2.92;;;0.77;;
17494;SDS011;8864;51.970;4.614;2023-04-12T00:44:33;1.25;;;0.60;;
17494;SDS011;8864;51.970;4.614;2023-04-12T00:47:01;2.45;;;0.93;;
17494;SDS011;8864;51.970;4.614;2023-04-12T00:49:30;1.45;;;0.77;;
17494;SDS011;8864;51.970;4.614;2023-04-12T00:51:59;1.23;;;0.70;;
17494;SDS011;8864;51.970;4.614;2023-04-12T00:54:28;1.92;;;0.60;;
17494;SDS011;8864;51.970;4.614;2023-04-12T00:56:56;2.92;;;0.77;;
17494;SDS011;8864;51.970;4.614;2023-04-12T00:59:23;1.83;;;0.65;;
17494;SDS011;8864;51.970;4.614;2023-04-12T01:01:50;2.30;;;1.08;;
17494;SDS011;8864;51.970;4.614;2023-04-12T01:04:19;2.38;;;0.70;;
17494;SDS011;8864;51.970;4.614;2023-04-12T01:06:50;1.23;;;0.80;;
17494;SDS011;8864;51.970;4.614;2023-04-12T01:09:41;2.60;;;0.70;;
17494;SDS011;8864;51.970;4.614;2023-04-12T01:12:16;0.75;;;0.68;;
17494;SDS011;8864;51.970;4.614;2023-04-12T01:14:53;1.95;;;0.63;;
17494;SDS011;8864;51.970;4.614;2023-04-12T01:21:07;1.48;;;0.70;;
17494;SDS011;8864;51.970;4.614;2023-04-12T01:23:53;2.55;;;0.65;;
17494;SDS011;8864;51.970;4.614;2023-04-12T01:26:35;2.33;;;0.60;;
17494;SDS011;8864;51.970;4.614;2023-04-12T01:29:11;3.22;;;0.70;;
17494;SDS011;8864;51.970;4.614;2023-04-12T01:31:40;1.40;;;0.70;;
17494;SDS011;8864;51.970;4.614;2023-04-12T01:34:13;1.45;;;0.77;;
17494;SDS011;8864;51.970;4.614;2023-04-12T01:36:42;2.85;;;0.60;;
17494;SDS011;8864;51.970;4.614;2023-04-12T01:39:11;1.13;;;0.47;;
17494;SDS011;8864;51.970;4.614;2023-04-12T01:41:38;1.33;;;0.70;;
17494;SDS011;8864;51.970;4.614;2023-04-12T01:44:07;1.95;;;0.60;;
17494;SDS011;8864;51.970;4.614;2023-04-12T01:46:35;1.35;;;0.63;;
17494;SDS011;8864;51.970;4.614;2023-04-12T01:49:03;1.10;;;0.60;;
17494;SDS011;8864;51.970;4.614;2023-04-12T01:51:33;1.45;;;0.63;;
17494;SDS011;8864;51.970;4.614;2023-04-12T01:54:06;0.55;;;0.50;;
17494;SDS011;8864;51.970;4.614;2023-04-12T01:56:37;1.58;;;0.55;;
17494;SDS011;8864;51.970;4.614;2023-04-12T01:59:06;1.33;;;0.57;;
17494;SDS011;8864;51.970;4.614;2023-04-12T02:01:37;1.88;;;0.50;;
17494;SDS011;8864;51.970;4.614;2023-04-12T02:04:04;1.15;;;0.50;;
17494;SDS011;8864;51.970;4.614;2023-04-12T02:06:33;1.83;;;0.68;;
17494;SDS011;8864;51.970;4.614;2023-04-12T02:09:02;0.88;;;0.60;;
17494;SDS011;8864;51.970;4.614;2023-04-12T02:11:29;1.08;;;0.60;;
17494;SDS011;8864;51.970;4.614;2023-04-12T02:13:56;2.42;;;0.80;;
17494;SDS011;8864;51.970;4.614;2023-04-12T02:16:24;1.48;;;0.55;;
17494;SDS011;8864;51.970;4.614;2023-04-12T02:18:54;1.60;;;0.70;;
17494;SDS011;8864;51.970;4.614;2023-04-12T02:21:22;0.75;;;0.60;;
17494;SDS011;8864;51.970;4.614;2023-04-12T02:23:50;0.90;;;0.47;;
17494;SDS011;8864;51.970;4.614;2023-04-12T02:26:17;1.67;;;0.55;;
17494;SDS011;8864;51.970;4.614;2023-04-12T02:28:45;0.73;;;0.45;;
17494;SDS011;8864;51.970;4.614;2023-04-12T02:31:12;3.35;;;0.80;;
17494;SDS011;8864;51.970;4.614;2023-04-12T02:33:39;0.85;;;0.50;;
17494;SDS011;8864;51.970;4.614;2023-04-12T02:36:09;3.95;;;0.82;;
17494;SDS011;8864;51.970;4.614;2023-04-12T02:38:36;1.30;;;0.52;;
17494;SDS011;8864;51.970;4.614;2023-04-12T02:41:03;1.85;;;0.52;;
17494;SDS011;8864;51.970;4.614;2023-04-12T02:43:31;0.98;;;0.50;;
17494;SDS011;8864;51.970;4.614;2023-04-12T02:45:58;1.65;;;0.73;;
17494;SDS011;8864;51.970;4.614;2023-04-12T02:48:24;0.60;;;0.60;;
17494;SDS011;8864;51.970;4.614;2023-04-12T02:50:51;1.38;;;0.60;;
17494;SDS011;8864;51.970;4.614;2023-04-12T02:53:22;1.48;;;0.70;;
17494;SDS011;8864;51.970;4.614;2023-04-12T02:55:49;1.35;;;0.65;;
17494;SDS011;8864;51.970;4.614;2023-04-12T02:58:16;0.82;;;0.50;;
17494;SDS011;8864;51.970;4.614;2023-04-12T03:00:44;1.52;;;0.60;;
17494;SDS011;8864;51.970;4.614;2023-04-12T03:03:12;1.83;;;0.50;;
17494;SDS011;8864;51.970;4.614;2023-04-12T03:05:38;1.35;;;0.70;;
17494;SDS011;8864;51.970;4.614;2023-04-12T03:08:06;1.08;;;0.50;;
17494;SDS011;8864;51.970;4.614;2023-04-12T03:10:35;1.23;;;0.60;;
17494;SDS011;8864;51.970;4.614;2023-04-12T03:13:01;1.00;;;0.57;;
17494;SDS011;8864;51.970;4.614;2023-04-12T03:15:29;0.60;;;0.60;;
17494;SDS011;8864;51.970;4.614;2023-04-12T03:17:56;1.70;;;0.50;;
17494;SDS011;8864;51.970;4.614;2023-04-12T03:20:23;0.82;;;0.55;;
17494;SDS011;8864;51.970;4.614;2023-04-12T03:22:52;1.67;;;0.60;;
17494;SDS011;8864;51.970;4.614;2023-04-12T03:25:22;1.15;;;0.60;;
17494;SDS011;8864;51.970;4.614;2023-04-12T03:27:51;1.58;;;0.70;;
17494;SDS011;8864;51.970;4.614;2023-04-12T03:30:17;1.58;;;0.70;;
17494;SDS011;8864;51.970;4.614;2023-04-12T03:32:44;1.05;;;0.50;;
17494;SDS011;8864;51.970;4.614;2023-04-12T03:35:11;2.33;;;0.60;;
17494;SDS011;8864;51.970;4.614;2023-04-12T03:37:39;1.17;;;0.55;;
17494;SDS011;8864;51.970;4.614;2023-04-12T03:40:07;1.35;;;0.57;;
17494;SDS011;8864;51.970;4.614;2023-04-12T03:42:35;1.02;;;0.70;;
17494;SDS011;8864;51.970;4.614;2023-04-12T03:45:03;0.70;;;0.45;;
17494;SDS011;8864;51.970;4.614;2023-04-12T03:47:31;0.70;;;0.45;;
17494;SDS011;8864;51.970;4.614;2023-04-12T03:50:01;0.90;;;0.40;;
17494;SDS011;8864;51.970;4.614;2023-04-12T03:52:30;1.55;;;0.65;;
17494;SDS011;8864;51.970;4.614;2023-04-12T03:54:57;1.05;;;0.50;;
17494;SDS011;8864;51.970;4.614;2023-04-12T03:57:24;0.93;;;0.52;;
17494;SDS011;8864;51.970;4.614;2023-04-12T03:59:51;0.88;;;0.47;;
17494;SDS011;8864;51.970;4.614;2023-04-12T04:02:19;1.75;;;0.70;;
17494;SDS011;8864;51.970;4.614;2023-04-12T04:04:46;2.13;;;0.60;;
17494;SDS011;8864;51.970;4.614;2023-04-12T04:07:13;0.30;;;0.30;;
17494;SDS011;8864;51.970;4.614;2023-04-12T04:09:40;0.85;;;0.50;;
17494;SDS011;8864;51.970;4.614;2023-04-12T04:12:07;0.50;;;0.50;;
17494;SDS011;8864;51.970;4.614;2023-04-12T04:14:34;1.05;;;0.50;;
17494;SDS011;8864;51.970;4.614;2023-04-12T04:17:01;0.85;;;0.45;;
17494;SDS011;8864;51.970;4.614;2023-04-12T04:19:30;0.93;;;0.50;;
17494;SDS011;8864;51.970;4.614;2023-04-12T04:21:57;0.82;;;0.40;;
17494;SDS011;8864;51.970;4.614;2023-04-12T04:24:26;0.65;;;0.40;;
17494;SDS011;8864;51.970;4.614;2023-04-12T04:26:52;0.88;;;0.50;;
17494;SDS011;8864;51.970;4.614;2023-04-12T04:29:20;1.73;;;0.65;;
17494;SDS011;8864;51.970;4.614;2023-04-12T04:31:47;0.50;;;0.40;;
17494;SDS011;8864;51.970;4.614;2023-04-12T04:34:14;0.25;;;0.25;;
17494;SDS011;8864;51.970;4.614;2023-04-12T04:36:44;0.85;;;0.38;;
17494;SDS011;8864;51.970;4.614;2023-04-12T04:39:11;0.75;;;0.47;;
17494;SDS011;8864;51.970;4.614;2023-04-12T04:41:38;1.52;;;0.50;;
17494;SDS011;8864;51.970;4.614;2023-04-12T04:44:05;0.65;;;0.47;;
17494;SDS011;8864;51.970;4.614;2023-04-12T04:46:34;0.95;;;0.50;;
17494;SDS011;8864;51.970;4.614;2023-04-12T04:49:02;0.85;;;0.55;;
17494;SDS011;8864;51.970;4.614;2023-04-12T04:51:29;0.75;;;0.50;;
17494;SDS011;8864;51.970;4.614;2023-04-12T04:53:58;0.52;;;0.40;;
17494;SDS011;8864;51.970;4.614;2023-04-12T04:56:26;0.57;;;0.38;;
17494;SDS011;8864;51.970;4.614;2023-04-12T04:58:53;0.50;;;0.50;;
17494;SDS011;8864;51.970;4.614;2023-04-12T05:01:20;0.60;;;0.40;;
17494;SDS011;8864;51.970;4.614;2023-04-12T05:03:49;0.93;;;0.40;;
17494;SDS011;8864;51.970;4.614;2023-04-12T05:06:16;0.90;;;0.50;;
17494;SDS011;8864;51.970;4.614;2023-04-12T05:08:43;1.00;;;0.50;;
17494;SDS011;8864;51.970;4.614;2023-04-12T05:11:12;1.67;;;0.60;;
17494;SDS011;8864;51.970;4.614;2023-04-12T05:13:38;0.63;;;0.35;;
17494;SDS011;8864;51.970;4.614;2023-04-12T05:16:06;0.63;;;0.40;;
17494;SDS011;8864;51.970;4.614;2023-04-12T05:18:33;1.58;;;0.47;;
17494;SDS011;8864;51.970;4.614;2023-04-12T05:21:02;1.90;;;0.55;;
17494;SDS011;8864;51.970;4.614;2023-04-12T05:23:31;0.60;;;0.40;;
17494;SDS011;8864;51.970;4.614;2023-04-12T05:26:00;0.30;;;0.30;;
17494;SDS011;8864;51.970;4.614;2023-04-12T05:28:28;1.33;;;0.60;;
17494;SDS011;8864;51.970;4.614;2023-04-12T05:30:55;0.47;;;0.40;;
17494;SDS011;8864;51.970;4.614;2023-04-12T05:33:22;0.85;;;0.50;;
17494;SDS011;8864;51.970;4.614;2023-04-12T05:35:49;0.52;;;0.40;;
17494;SDS011;8864;51.970;4.614;2023-04-12T05:38:16;0.95;;;0.52;;
17494;SDS011;8864;51.970;4.614;2023-04-12T05:40:43;0.65;;;0.40;;
17494;SDS011;8864;51.970;4.614;2023-04-12T05:43:10;0.95;;;0.47;;
17494;SDS011;8864;51.970;4.614;2023-04-12T05:45:39;0.60;;;0.45;;
17494;SDS011;8864;51.970;4.614;2023-04-12T05:48:06;0.60;;;0.50;;
17494;SDS011;8864;51.970;4.614;2023-04-12T05:50:33;1.30;;;0.60;;
17494;SDS011;8864;51.970;4.614;2023-04-12T05:53:00;0.30;;;0.30;;
17494;SDS011;8864;51.970;4.614;2023-04-12T05:55:27;3.05;;;0.75;;
17494;SDS011;8864;51.970;4.614;2023-04-12T05:57:54;0.82;;;0.60;;
17494;SDS011;8864;51.970;4.614;2023-04-12T06:00:22;1.08;;;0.55;;
17494;SDS011;8864;51.970;4.614;2023-04-12T06:02:51;1.67;;;0.85;;
17494;SDS011;8864;51.970;4.614;2023-04-12T06:05:19;1.38;;;0.60;;
17494;SDS011;8864;51.970;4.614;2023-04-12T06:07:46;3.30;;;0.47;;
17494;SDS011;8864;51.970;4.614;2023-04-12T06:10:15;1.70;;;0.52;;
17494;SDS011;8864;51.970;4.614;2023-04-12T06:12:43;2.30;;;0.60;;
17494;SDS011;8864;51.970;4.614;2023-04-12T06:15:10;2.80;;;0.63;;
17494;SDS011;8864;51.970;4.614;2023-04-12T06:17:37;0.70;;;0.50;;
17494;SDS011;8864;51.970;4.614;2023-04-12T06:20:06;2.90;;;0.60;;
17494;SDS011;8864;51.970;4.614;2023-04-12T06:22:36;1.25;;;0.65;;
17494;SDS011;8864;51.970;4.614;2023-04-12T06:25:03;1.65;;;0.65;;
17494;SDS011;8864;51.970;4.614;2023-04-12T06:27:32;2.53;;;0.60;;
17494;SDS011;8864;51.970;4.614;2023-04-12T06:29:59;2.38;;;0.80;;
17494;SDS011;8864;51.970;4.614;2023-04-12T06:32:26;1.20;;;0.47;;
17494;SDS011;8864;51.970;4.614;2023-04-12T06:34:53;3.35;;;0.90;;
17494;SDS011;8864;51.970;4.614;2023-04-12T06:37:21;2.67;;;0.73;;
17494;SDS011;8864;51.970;4.614;2023-04-12T06:39:48;4.15;;;0.80;;
17494;SDS011;8864;51.970;4.614;2023-04-12T06:42:16;1.58;;;0.60;;
17494;SDS011;8864;51.970;4.614;2023-04-12T06:44:43;2.55;;;0.68;;
17494;SDS011;8864;51.970;4.614;2023-04-12T06:47:10;2.90;;;0.70;;
17494;SDS011;8864;51.970;4.614;2023-04-12T06:49:40;2.05;;;0.68;;
17494;SDS011;8864;51.970;4.614;2023-04-12T06:52:07;2.38;;;0.60;;
17494;SDS011;8864;51.970;4.614;2023-04-12T06:54:36;2.63;;;0.73;;
17494;SDS011;8864;51.970;4.614;2023-04-12T06:57:07;3.63;;;0.90;;
17494;SDS011;8864;51.970;4.614;2023-04-12T06:59:35;3.60;;;0.82;;
17494;SDS011;8864;51.970;4.614;2023-04-12T07:02:02;1.92;;;1.00;;
17494;SDS011;8864;51.970;4.614;2023-04-12T07:04:29;4.68;;;0.95;;
17494;SDS011;8864;51.970;4.614;2023-04-12T07:06:55;2.90;;;0.80;;
17494;SDS011;8864;51.970;4.614;2023-04-12T07:09:22;4.43;;;1.10;;
17494;SDS011;8864;51.970;4.614;2023-04-12T07:11:51;3.28;;;1.00;;
17494;SDS011;8864;51.970;4.614;2023-04-12T07:14:18;3.35;;;1.08;;
17494;SDS011;8864;51.970;4.614;2023-04-12T07:16:44;5.30;;;0.90;;
17494;SDS011;8864;51.970;4.614;2023-04-12T07:19:11;4.03;;;1.05;;
17494;SDS011;8864;51.970;4.614;2023-04-12T07:21:38;4.38;;;1.13;;
17494;SDS011;8864;51.970;4.614;2023-04-12T07:24:05;4.47;;;0.85;;
17494;SDS011;8864;51.970;4.614;2023-04-12T07:26:32;2.00;;;0.90;;
17494;SDS011;8864;51.970;4.614;2023-04-12T07:29:01;4.43;;;0.95;;
17494;SDS011;8864;51.970;4.614;2023-04-12T07:31:27;3.25;;;0.95;;
17494;SDS011;8864;51.970;4.614;2023-04-12T07:33:55;3.53;;;0.90;;
17494;SDS011;8864;51.970;4.614;2023-04-12T07:36:22;2.72;;;1.00;;
17494;SDS011;8864;51.970;4.614;2023-04-12T07:38:51;2.45;;;1.05;;
17494;SDS011;8864;51.970;4.614;2023-04-12T07:41:19;5.55;;;0.95;;
17494;SDS011;8864;51.970;4.614;2023-04-12T07:43:47;1.40;;;0.65;;
17494;SDS011;8864;51.970;4.614;2023-04-12T07:46:15;3.53;;;1.00;;
17494;SDS011;8864;51.970;4.614;2023-04-12T07:48:42;1.50;;;0.70;;
17494;SDS011;8864;51.970;4.614;2023-04-12T07:51:09;2.00;;;0.82;;
17494;SDS011;8864;51.970;4.614;2023-04-12T07:53:39;2.15;;;0.70;;
17494;SDS011;8864;51.970;4.614;2023-04-12T07:56:06;4.10;;;0.93;;
17494;SDS011;8864;51.970;4.614;2023-04-12T07:58:34;4.90;;;0.90;;
17494;SDS011;8864;51.970;4.614;2023-04-12T08:01:01;5.60;;;1.20;;
17494;SDS011;8864;51.970;4.614;2023-04-12T08:03:29;2.15;;;0.80;;
17494;SDS011;8864;51.970;4.614;2023-04-12T08:05:56;2.85;;;1.00;;
17494;SDS011;8864;51.970;4.614;2023-04-12T08:08:23;3.20;;;0.80;;
17494;SDS011;8864;51.970;4.614;2023-04-12T08:10:51;3.03;;;0.82;;
17494;SDS011;8864;51.970;4.614;2023-04-12T08:13:18;2.75;;;0.90;;
17494;SDS011;8864;51.970;4.614;2023-04-12T08:15:45;2.75;;;0.70;;
17494;SDS011;8864;51.970;4.614;2023-04-12T08:18:12;3.65;;;0.93;;
17494;SDS011;8864;51.970;4.614;2023-04-12T08:20:40;3.53;;;0.90;;
17494;SDS011;8864;51.970;4.614;2023-04-12T08:23:08;2.78;;;0.80;;
17494;SDS011;8864;51.970;4.614;2023-04-12T08:25:35;3.38;;;0.98;;
17494;SDS011;8864;51.970;4.614;2023-04-12T08:28:03;3.63;;;1.05;;
17494;SDS011;8864;51.970;4.614;2023-04-12T08:30:31;2.38;;;0.75;;
17494;SDS011;8864;51.970;4.614;2023-04-12T08:32:58;3.13;;;0.95;;
17494;SDS011;8864;51.970;4.614;2023-04-12T08:35:25;5.53;;;1.20;;
17494;SDS011;8864;51.970;4.614;2023-04-12T08:37:55;3.22;;;1.08;;
17494;SDS011;8864;51.970;4.614;2023-04-12T08:40:22;3.88;;;0.98;;
17494;SDS011;8864;51.970;4.614;2023-04-12T08:42:50;4.93;;;1.10;;
17494;SDS011;8864;51.970;4.614;2023-04-12T08:45:18;2.75;;;0.95;;
17494;SDS011;8864;51.970;4.614;2023-04-12T08:47:47;3.47;;;1.27;;
17494;SDS011;8864;51.970;4.614;2023-04-12T08:50:14;1.63;;;0.70;;
17494;SDS011;8864;51.970;4.614;2023-04-12T08:52:41;3.47;;;1.20;;
17494;SDS011;8864;51.970;4.614;2023-04-12T08:55:10;7.75;;;1.05;;
17494;SDS011;8864;51.970;4.614;2023-04-12T08:57:38;1.90;;;0.80;;
17494;SDS011;8864;51.970;4.614;2023-04-12T09:00:07;2.13;;;0.90;;
17494;SDS011;8864;51.970;4.614;2023-04-12T09:02:35;1.75;;;0.80;;
17494;SDS011;8864;51.970;4.614;2023-04-12T09:05:03;3.10;;;0.63;;
17494;SDS011;8864;51.970;4.614;2023-04-12T09:07:30;2.60;;;0.80;;
17494;SDS011;8864;51.970;4.614;2023-04-12T09:09:58;1.75;;;0.75;;
17494;SDS011;8864;51.970;4.614;2023-04-12T09:12:26;3.85;;;1.02;;
17494;SDS011;8864;51.970;4.614;2023-04-12T09:15:06;2.80;;;0.90;;
17494;SDS011;8864;51.970;4.614;2023-04-12T09:17:36;3.63;;;0.85;;
17494;SDS011;8864;51.970;4.614;2023-04-12T09:20:21;1.33;;;0.80;;
17494;SDS011;8864;51.970;4.614;2023-04-12T09:22:50;2.42;;;0.80;;
17494;SDS011;8864;51.970;4.614;2023-04-12T09:25:19;2.30;;;0.80;;
17494;SDS011;8864;51.970;4.614;2023-04-12T09:28:17;2.60;;;1.08;;
17494;SDS011;8864;51.970;4.614;2023-04-12T09:30:47;6.70;;;1.10;;
17494;SDS011;8864;51.970;4.614;2023-04-12T09:33:20;3.30;;;0.70;;
17494;SDS011;8864;51.970;4.614;2023-04-12T09:35:48;2.60;;;0.90;;
17494;SDS011;8864;51.970;4.614;2023-04-12T09:38:15;3.00;;;0.85;;
17494;SDS011;8864;51.970;4.614;2023-04-12T09:40:42;4.07;;;0.90;;
17494;SDS011;8864;51.970;4.614;2023-04-12T09:43:09;2.67;;;0.90;;
17494;SDS011;8864;51.970;4.614;2023-04-12T09:45:37;3.10;;;0.80;;
17494;SDS011;8864;51.970;4.614;2023-04-12T09:48:05;2.22;;;0.82;;
17494;SDS011;8864;51.970;4.614;2023-04-12T09:50:32;3.45;;;1.20;;
17494;SDS011;8864;51.970;4.614;2023-04-12T09:53:00;2.63;;;0.85;;
17494;SDS011;8864;51.970;4.614;2023-04-12T09:55:30;2.78;;;0.88;;
17494;SDS011;8864;51.970;4.614;2023-04-12T09:58:00;2.47;;;0.70;;
17494;SDS011;8864;51.970;4.614;2023-04-12T10:00:29;1.67;;;0.63;;
17494;SDS011;8864;51.970;4.614;2023-04-12T10:03:00;3.05;;;0.80;;
17494;SDS011;8864;51.970;4.614;2023-04-12T10:05:30;2.33;;;0.88;;
17494;SDS011;8864;51.970;4.614;2023-04-12T10:08:00;2.58;;;0.70;;
17494;SDS011;8864;51.970;4.614;2023-04-12T10:10:27;1.52;;;0.70;;
17494;SDS011;8864;51.970;4.614;2023-04-12T10:12:55;2.67;;;1.00;;
17494;SDS011;8864;51.970;4.614;2023-04-12T10:15:23;2.13;;;0.88;;
17494;SDS011;8864;51.970;4.614;2023-04-12T10:17:50;3.67;;;1.13;;
17494;SDS011;8864;51.970;4.614;2023-04-12T10:20:20;3.90;;;0.80;;
17494;SDS011;8864;51.970;4.614;2023-04-12T10:22:48;2.53;;;0.93;;
17494;SDS011;8864;51.970;4.614;2023-04-12T10:25:19;2.55;;;1.10;;
17494;SDS011;8864;51.970;4.614;2023-04-12T10:27:47;3.30;;;0.80;;
17494;SDS011;8864;51.970;4.614;2023-04-12T10:30:18;3.20;;;1.05;;
17494;SDS011;8864;51.970;4.614;2023-04-12T10:32:49;5.53;;;1.00;;
17494;SDS011;8864;51.970;4.614;2023-04-12T10:35:49;3.40;;;1.20;;
17494;SDS011;8864;51.970;4.614;2023-04-12T10:38:24;3.75;;;1.08;;
17494;SDS011;8864;51.970;4.614;2023-04-12T10:41:08;2.22;;;0.73;;
17494;SDS011;8864;51.970;4.614;2023-04-12T10:43:39;4.07;;;1.10;;
17494;SDS011;8864;51.970;4.614;2023-04-12T10:46:06;2.50;;;0.75;;
17494;SDS011;8864;51.970;4.614;2023-04-12T10:48:36;4.18;;;0.90;;
17494;SDS011;8864;51.970;4.614;2023-04-12T10:51:12;3.72;;;1.10;;
17494;SDS011;8864;51.970;4.614;2023-04-12T10:53:40;3.80;;;0.80;;
17494;SDS011;8864;51.970;4.614;2023-04-12T10:59:02;2.63;;;0.63;;
17494;SDS011;8864;51.970;4.614;2023-04-12T11:01:30;3.33;;;0.95;;
17494;SDS011;8864;51.970;4.614;2023-04-12T11:04:14;2.65;;;0.77;;
17494;SDS011;8864;51.970;4.614;2023-04-12T11:06:55;1.65;;;0.63;;
17494;SDS011;8864;51.970;4.614;2023-04-12T11:09:27;3.60;;;1.23;;
17494;SDS011;8864;51.970;4.614;2023-04-12T11:11:58;3.63;;;1.20;;
17494;SDS011;8864;51.970;4.614;2023-04-12T11:14:38;3.25;;;0.80;;
17494;SDS011;8864;51.970;4.614;2023-04-12T11:17:22;2.17;;;0.80;;
17494;SDS011;8864;51.970;4.614;2023-04-12T11:19:51;3.70;;;0.82;;
17494;SDS011;8864;51.970;4.614;2023-04-12T11:22:27;4.40;;;0.93;;
17494;SDS011;8864;51.970;4.614;2023-04-12T11:24:56;3.20;;;0.93;;
17494;SDS011;8864;51.970;4.614;2023-04-12T11:27:24;2.35;;;0.82;;
17494;SDS011;8864;51.970;4.614;2023-04-12T11:29:53;2.78;;;0.90;;
17494;SDS011;8864;51.970;4.614;2023-04-12T11:32:21;2.60;;;1.08;;
17494;SDS011;8864;51.970;4.614;2023-04-12T11:34:50;2.72;;;0.77;;
17494;SDS011;8864;51.970;4.614;2023-04-12T11:37:19;2.50;;;0.70;;
17494;SDS011;8864;51.970;4.614;2023-04-12T11:39:49;2.47;;;0.77;;
17494;SDS011;8864;51.970;4.614;2023-04-12T11:42:18;3.67;;;0.90;;
17494;SDS011;8864;51.970;4.614;2023-04-12T11:44:46;3.30;;;0.80;;
17494;SDS011;8864;51.970;4.614;2023-04-12T11:47:14;1.75;;;0.57;;
17494;SDS011;8864;51.970;4.614;2023-04-12T11:49:42;3.83;;;0.90;;
17494;SDS011;8864;51.970;4.614;2023-04-12T11:52:14;3.40;;;0.80;;
17494;SDS011;8864;51.970;4.614;2023-04-12T11:54:43;2.80;;;0.70;;
17494;SDS011;8864;51.970;4.614;2023-04-12T11:57:13;3.90;;;0.88;;
17494;SDS011;8864;51.970;4.614;2023-04-12T11:59:44;2.05;;;0.63;;
17494;SDS011;8864;51.970;4.614;2023-04-12T12:02:12;2.47;;;0.90;;
17494;SDS011;8864;51.970;4.614;2023-04-12T12:04:42;4.00;;;1.13;;
17494;SDS011;8864;51.970;4.614;2023-04-12T12:07:11;4.15;;;0.90;;
17494;SDS011;8864;51.970;4.614;2023-04-12T12:09:39;3.90;;;0.60;;
17494;SDS011;8864;51.970;4.614;2023-04-12T12:12:08;4.90;;;0.93;;
17494;SDS011;8864;51.970;4.614;2023-04-12T12:14:38;2.08;;;0.80;;
17494;SDS011;8864;51.970;4.614;2023-04-12T12:17:09;2.85;;;0.60;;
17494;SDS011;8864;51.970;4.614;2023-04-12T12:19:37;2.63;;;1.00;;
17494;SDS011;8864;51.970;4.614;2023-04-12T12:22:14;1.42;;;0.60;;
17494;SDS011;8864;51.970;4.614;2023-04-12T12:24:48;1.83;;;0.70;;
17494;SDS011;8864;51.970;4.614;2023-04-12T12:27:16;1.75;;;0.60;;
17494;SDS011;8864;51.970;4.614;2023-04-12T12:29:49;2.33;;;0.90;;
17494;SDS011;8864;51.970;4.614;2023-04-12T12:32:18;2.55;;;0.70;;
17494;SDS011;8864;51.970;4.614;2023-04-12T12:34:50;1.13;;;0.60;;
17494;SDS011;8864;51.970;4.614;2023-04-12T12:37:19;2.88;;;0.90;;
17494;SDS011;8864;51.970;4.614;2023-04-12T12:40:04;2.15;;;0.70;;
17494;SDS011;8864;51.970;4.614;2023-04-12T12:42:36;0.93;;;0.43;;
17494;SDS011;8864;51.970;4.614;2023-04-12T12:45:11;1.52;;;0.70;;
17494;SDS011;8864;51.970;4.614;2023-04-12T12:47:48;1.27;;;0.60;;
17494;SDS011;8864;51.970;4.614;2023-04-12T12:50:17;1.40;;;0.60;;
17494;SDS011;8864;51.970;4.614;2023-04-12T12:52:45;2.20;;;0.75;;
17494;SDS011;8864;51.970;4.614;2023-04-12T12:55:12;2.00;;;0.70;;
17494;SDS011;8864;51.970;4.614;2023-04-12T12:57:41;1.30;;;0.70;;
17494;SDS011;8864;51.970;4.614;2023-04-12T13:00:08;1.33;;;0.70;;
17494;SDS011;8864;51.970;4.614;2023-04-12T13:02:39;1.08;;;0.63;;
17494;SDS011;8864;51.970;4.614;2023-04-12T13:05:06;1.52;;;0.70;;
17494;SDS011;8864;51.970;4.614;2023-04-12T13:07:34;1.60;;;0.50;;
17494;SDS011;8864;51.970;4.614;2023-04-12T13:10:01;1.90;;;0.70;;
17494;SDS011;8864;51.970;4.614;2023-04-12T13:12:29;1.73;;;0.52;;
17494;SDS011;8864;51.970;4.614;2023-04-12T13:14:56;1.17;;;0.55;;
17494;SDS011;8864;51.970;4.614;2023-04-12T13:17:27;1.25;;;0.52;;
17494;SDS011;8864;51.970;4.614;2023-04-12T13:19:55;0.63;;;0.50;;
17494;SDS011;8864;51.970;4.614;2023-04-12T13:22:23;2.25;;;0.90;;
17494;SDS011;8864;51.970;4.614;2023-04-12T13:24:51;0.75;;;0.50;;
17494;SDS011;8864;51.970;4.614;2023-04-12T13:27:19;2.38;;;0.63;;
17494;SDS011;8864;51.970;4.614;2023-04-12T13:29:46;1.40;;;0.70;;
17494;SDS011;8864;51.970;4.614;2023-04-12T13:32:13;3.03;;;0.70;;
17494;SDS011;8864;51.970;4.614;2023-04-12T13:34:42;2.67;;;0.65;;
17494;SDS011;8864;51.970;4.614;2023-04-12T13:37:09;2.20;;;0.70;;
17494;SDS011;8864;51.970;4.614;2023-04-12T13:39:36;1.65;;;0.65;;
17494;SDS011;8864;51.970;4.614;2023-04-12T13:42:05;1.88;;;0.77;;
17494;SDS011;8864;51.970;4.614;2023-04-12T13:44:32;1.10;;;0.50;;
17494;SDS011;8864;51.970;4.614;2023-04-12T13:46:59;1.00;;;0.55;;
17494;SDS011;8864;51.970;4.614;2023-04-12T13:49:26;1.58;;;0.60;;
17494;SDS011;8864;51.970;4.614;2023-04-12T13:51:54;1.58;;;0.50;;
17494;SDS011;8864;51.970;4.614;2023-04-12T13:54:21;1.33;;;0.50;;
17494;SDS011;8864;51.970;4.614;2023-04-12T13:56:48;1.10;;;0.50;;
17494;SDS011;8864;51.970;4.614;2023-04-12T13:59:15;0.75;;;0.45;;
17494;SDS011;8864;51.970;4.614;2023-04-12T14:01:42;1.15;;;0.47;;
17494;SDS011;8864;51.970;4.614;2023-04-12T14:04:09;0.77;;;0.45;;
17494;SDS011;8864;51.970;4.614;2023-04-12T14:06:36;1.10;;;0.50;;
17494;SDS011;8864;51.970;4.614;2023-04-12T14:09:05;1.33;;;0.60;;
17494;SDS011;8864;51.970;4.614;2023-04-12T14:11:43;0.40;;;0.40;;
17494;SDS011;8864;51.970;4.614;2023-04-12T14:14:11;2.30;;;0.50;;
17494;SDS011;8864;51.970;4.614;2023-04-12T14:16:38;2.72;;;0.60;;
17494;SDS011;8864;51.970;4.614;2023-04-12T14:19:06;0.98;;;0.50;;
17494;SDS011;8864;51.970;4.614;2023-04-12T14:21:33;0.60;;;0.40;;
17494;SDS011;8864;51.970;4.614;2023-04-12T14:24:00;1.42;;;0.45;;
17494;SDS011;8864;51.970;4.614;2023-04-12T14:26:30;1.95;;;0.40;;
17494;SDS011;8864;51.970;4.614;2023-04-12T14:28:57;1.25;;;0.60;;
17494;SDS011;8864;51.970;4.614;2023-04-12T14:31:24;0.77;;;0.50;;
17494;SDS011;8864;51.970;4.614;2023-04-12T14:33:51;0.70;;;0.50;;
17494;SDS011;8864;51.970;4.614;2023-04-12T14:36:18;1.20;;;0.40;;
17494;SDS011;8864;51.970;4.614;2023-04-12T14:38:45;0.65;;;0.30;;
17494;SDS011;8864;51.970;4.614;2023-04-12T14:41:12;0.70;;;0.50;;
17494;SDS011;8864;51.970;4.614;2023-04-12T14:43:40;1.63;;;0.50;;
17494;SDS011;8864;51.970;4.614;2023-04-12T14:46:07;0.75;;;0.50;;
17494;SDS011;8864;51.970;4.614;2023-04-12T14:48:35;2.22;;;0.65;;
17494;SDS011;8864;51.970;4.614;2023-04-12T14:51:02;1.02;;;0.40;;
17494;SDS011;8864;51.970;4.614;2023-04-12T14:53:29;0.60;;;0.35;;
17494;SDS011;8864;51.970;4.614;2023-04-12T14:55:56;0.80;;;0.50;;
17494;SDS011;8864;51.970;4.614;2023-04-12T14:58:24;0.50;;;0.43;;
17494;SDS011;8864;51.970;4.614;2023-04-12T15:00:54;0.73;;;0.40;;
17494;SDS011;8864;51.970;4.614;2023-04-12T15:03:22;1.27;;;0.50;;
17494;SDS011;8864;51.970;4.614;2023-04-12T15:05:50;0.47;;;0.30;;
17494;SDS011;8864;51.970;4.614;2023-04-12T15:08:17;0.75;;;0.50;;
17494;SDS011;8864;51.970;4.614;2023-04-12T15:10:44;2.65;;;0.47;;
17494;SDS011;8864;51.970;4.614;2023-04-12T15:13:11;1.17;;;0.40;;
17494;SDS011;8864;51.970;4.614;2023-04-12T15:15:38;0.93;;;0.52;;